sensor_id;sensor_type;location;lat;lon;timestamp;pressure;altitude;pressure_sealevel;temperature;humidity
8253;BME280;61313;48.396;10.008;2023-07-31T00:00:05;96340.44;;;17.11;58.93
8253;BME280;61313;48.396;10.008;2023-07-31T00:02:31;96339.59;;;17.11;58.67
8253;BME280;61313;48.396;10.008;2023-07-31T00:04:56;96343.00;;;17.13;59.09
8253;BME280;61313;48.396;10.008;2023-07-31T00:07:22;96334.63;;;16.93;59.38
8253;BME280;61313;48.396;10.008;2023-07-31T00:09:47;96336.03;;;16.99;59.12
8253;BME280;61313;48.396;10.008;2023-07-31T00:12:12;96333.16;;;17.02;59.12
8253;BME280;61313;48.396;10.008;2023-07-31T00:14:38;96339.19;;;17.04;58.88
8253;BME280;61313;48.396;10.008;2023-07-31T00:17:04;96335.69;;;16.91;59.60
8253;BME280;61313;48.396;10.008;2023-07-31T00:19:29;96331.56;;;16.61;60.89
8253;BME280;61313;48.396;10.008;2023-07-31T00:21:54;96334.94;;;16.76;60.71
8253;BME280;61313;48.396;10.008;2023-07-31T00:24:20;96335.47;;;16.68;61.09
8253;BME280;61313;48.396;10.008;2023-07-31T00:26:45;96327.09;;;16.75;61.01
8253;BME280;61313;48.396;10.008;2023-07-31T00:29:10;96337.50;;;16.78;60.85
8253;BME280;61313;48.396;10.008;2023-07-31T00:31:36;96328.06;;;16.86;60.27
8253;BME280;61313;48.396;10.008;2023-07-31T00:34:01;96332.19;;;16.90;60.01
8253;BME280;61313;48.396;10.008;2023-07-31T00:36:26;96335.59;;;16.92;59.73
8253;BME280;61313;48.396;10.008;2023-07-31T00:38:52;96334.00;;;16.90;59.77
8253;BME280;61313;48.396;10.008;2023-07-31T00:41:17;96333.28;;;16.88;59.57
8253;BME280;61313;48.396;10.008;2023-07-31T00:43:43;96330.41;;;16.91;59.51
8253;BME280;61313;48.396;10.008;2023-07-31T00:46:08;96329.47;;;16.92;59.61
8253;BME280;61313;48.396;10.008;2023-07-31T00:48:34;96329.31;;;16.93;59.54
8253;BME280;61313;48.396;10.008;2023-07-31T00:51:01;96328.28;;;16.83;59.96
8253;BME280;61313;48.396;10.008;2023-07-31T00:53:27;96328.72;;;16.77;59.72
8253;BME280;61313;48.396;10.008;2023-07-31T00:55:53;96336.25;;;16.83;59.11
8253;BME280;61313;48.396;10.008;2023-07-31T00:58:19;96321.19;;;16.84;59.44
8253;BME280;61313;48.396;10.008;2023-07-31T01:00:44;96321.59;;;16.90;59.05
8253;BME280;61313;48.396;10.008;2023-07-31T01:03:10;96322.38;;;16.80;59.29
8253;BME280;61313;48.396;10.008;2023-07-31T01:08:52;96326.56;;;16.69;59.62
8253;BME280;61313;48.396;10.008;2023-07-31T01:11:27;96325.88;;;16.80;59.21
8253;BME280;61313;48.396;10.008;2023-07-31T01:13:55;96335.41;;;16.83;59.45
8253;BME280;61313;48.396;10.008;2023-07-31T01:16:20;96324.13;;;16.66;59.78
8253;BME280;61313;48.396;10.008;2023-07-31T01:18:46;96324.22;;;16.39;60.92
8253;BME280;61313;48.396;10.008;2023-07-31T01:26:28;96315.22;;;16.29;61.59
8253;BME280;61313;48.396;10.008;2023-07-31T01:29:06;96315.22;;;16.16;61.69
8253;BME280;61313;48.396;10.008;2023-07-31T01:31:33;96308.72;;;16.07;62.03
8253;BME280;61313;48.396;10.008;2023-07-31T01:34:01;96308.19;;;16.02;62.75
8253;BME280;61313;48.396;10.008;2023-07-31T01:36:27;96294.53;;;16.08;62.57
8253;BME280;61313;48.396;10.008;2023-07-31T01:38:58;96297.75;;;16.26;61.39
8253;BME280;61313;48.396;10.008;2023-07-31T01:41:23;96282.16;;;16.22;61.48
8253;BME280;61313;48.396;10.008;2023-07-31T01:43:48;96280.06;;;16.40;60.68
8253;BME280;61313;48.396;10.008;2023-07-31T01:46:14;96278.56;;;16.36;61.18
8253;BME280;61313;48.396;10.008;2023-07-31T01:48:39;96282.38;;;16.32;61.41
8253;BME280;61313;48.396;10.008;2023-07-31T01:51:04;96276.25;;;16.31;61.24
8253;BME280;61313;48.396;10.008;2023-07-31T01:53:31;96278.34;;;16.39;61.09
8253;BME280;61313;48.396;10.008;2023-07-31T01:55:56;96278.25;;;16.27;61.29
8253;BME280;61313;48.396;10.008;2023-07-31T01:58:21;96277.06;;;16.06;62.22
8253;BME280;61313;48.396;10.008;2023-07-31T02:00:47;96283.41;;;15.91;62.86
8253;BME280;61313;48.396;10.008;2023-07-31T02:03:12;96277.50;;;16.00;62.97
8253;BME280;61313;48.396;10.008;2023-07-31T02:05:48;96279.78;;;15.92;63.01
8253;BME280;61313;48.396;10.008;2023-07-31T02:08:13;96271.66;;;15.95;62.82
8253;BME280;61313;48.396;10.008;2023-07-31T02:10:39;96272.22;;;16.13;62.20
8253;BME280;61313;48.396;10.008;2023-07-31T02:13:04;96270.41;;;16.13;62.46
8253;BME280;61313;48.396;10.008;2023-07-31T02:15:30;96271.16;;;16.02;62.70
8253;BME280;61313;48.396;10.008;2023-07-31T02:17:56;96264.13;;;16.01;62.81
8253;BME280;61313;48.396;10.008;2023-07-31T02:20:21;96263.13;;;16.04;62.17
8253;BME280;61313;48.396;10.008;2023-07-31T02:22:47;96264.66;;;15.94;62.49
8253;BME280;61313;48.396;10.008;2023-07-31T02:25:12;96260.56;;;16.02;62.66
8253;BME280;61313;48.396;10.008;2023-07-31T02:27:38;96262.84;;;15.94;62.47
8253;BME280;61313;48.396;10.008;2023-07-31T02:30:03;96258.63;;;15.92;62.56
8253;BME280;61313;48.396;10.008;2023-07-31T02:32:28;96259.59;;;15.91;62.63
8253;BME280;61313;48.396;10.008;2023-07-31T02:34:55;96255.88;;;15.93;62.50
8253;BME280;61313;48.396;10.008;2023-07-31T02:37:20;96262.13;;;15.92;62.61
8253;BME280;61313;48.396;10.008;2023-07-31T02:39:49;96262.44;;;15.87;63.61
8253;BME280;61313;48.396;10.008;2023-07-31T02:42:14;96261.47;;;15.88;63.30
8253;BME280;61313;48.396;10.008;2023-07-31T02:44:40;96265.81;;;15.77;64.18
8253;BME280;61313;48.396;10.008;2023-07-31T02:47:05;96256.50;;;15.71;64.92
8253;BME280;61313;48.396;10.008;2023-07-31T02:49:31;96253.53;;;15.76;64.68
8253;BME280;61313;48.396;10.008;2023-07-31T02:51:56;96241.91;;;15.78;64.75
8253;BME280;61313;48.396;10.008;2023-07-31T02:54:21;96249.31;;;15.86;64.64
8253;BME280;61313;48.396;10.008;2023-07-31T02:56:48;96257.66;;;15.80;64.37
8253;BME280;61313;48.396;10.008;2023-07-31T02:59:14;96254.38;;;15.76;64.58
8253;BME280;61313;48.396;10.008;2023-07-31T03:01:39;96255.16;;;15.64;65.29
8253;BME280;61313;48.396;10.008;2023-07-31T03:04:05;96253.38;;;15.64;65.29
8253;BME280;61313;48.396;10.008;2023-07-31T03:06:30;96254.38;;;15.76;64.85
8253;BME280;61313;48.396;10.008;2023-07-31T03:08:56;96249.75;;;15.65;65.00
8253;BME280;61313;48.396;10.008;2023-07-31T03:11:21;96247.94;;;15.66;65.32
8253;BME280;61313;48.396;10.008;2023-07-31T03:13:46;96249.31;;;15.59;65.54
8253;BME280;61313;48.396;10.008;2023-07-31T03:16:12;96241.38;;;15.59;65.50
8253;BME280;61313;48.396;10.008;2023-07-31T03:18:37;96244.78;;;15.61;65.33
8253;BME280;61313;48.396;10.008;2023-07-31T03:21:04;96251.03;;;15.60;65.15
8253;BME280;61313;48.396;10.008;2023-07-31T03:23:29;96246.97;;;15.54;65.40
8253;BME280;61313;48.396;10.008;2023-07-31T03:26:02;96245.81;;;15.58;65.10
8253;BME280;61313;48.396;10.008;2023-07-31T03:28:30;96245.94;;;15.57;65.25
8253;BME280;61313;48.396;10.008;2023-07-31T03:30:56;96239.91;;;15.55;65.25
8253;BME280;61313;48.396;10.008;2023-07-31T03:33:21;96242.63;;;15.53;65.41
8253;BME280;61313;48.396;10.008;2023-07-31T03:35:47;96240.97;;;15.52;65.31
8253;BME280;61313;48.396;10.008;2023-07-31T03:38:12;96244.03;;;15.59;64.82
8253;BME280;61313;48.396;10.008;2023-07-31T03:40:38;96245.06;;;15.56;65.04
8253;BME280;61313;48.396;10.008;2023-07-31T03:43:05;96241.50;;;15.57;64.93
8253;BME280;61313;48.396;10.008;2023-07-31T03:45:30;96250.28;;;15.58;64.93
8253;BME280;61313;48.396;10.008;2023-07-31T03:47:55;96249.44;;;15.57;64.79
8253;BME280;61313;48.396;10.008;2023-07-31T03:50:21;96245.19;;;15.55;65.21
8253;BME280;61313;48.396;10.008;2023-07-31T03:52:46;96242.91;;;15.36;65.96
8253;BME280;61313;48.396;10.008;2023-07-31T03:55:12;96247.91;;;15.40;65.53
8253;BME280;61313;48.396;10.008;2023-07-31T03:57:37;96230.97;;;15.43;65.75
8253;BME280;61313;48.396;10.008;2023-07-31T04:00:03;96226.31;;;15.46;65.43
8253;BME280;61313;48.396;10.008;2023-07-31T04:02:29;96221.47;;;15.53;64.63
8253;BME280;61313;48.396;10.008;2023-07-31T04:04:54;96228.56;;;15.53;65.09
8253;BME280;61313;48.396;10.008;2023-07-31T04:07:19;96233.03;;;15.25;65.77
8253;BME280;61313;48.396;10.008;2023-07-31T04:09:45;96233.94;;;15.38;65.45
8253;BME280;61313;48.396;10.008;2023-07-31T04:12:10;96227.59;;;15.41;65.18
8253;BME280;61313;48.396;10.008;2023-07-31T04:14:36;96236.97;;;15.59;65.09
8253;BME280;61313;48.396;10.008;2023-07-31T04:17:01;96234.63;;;15.55;64.83
8253;BME280;61313;48.396;10.008;2023-07-31T04:19:27;96236.59;;;15.51;64.84
8253;BME280;61313;48.396;10.008;2023-07-31T04:21:52;96244.38;;;15.67;64.45
8253;BME280;61313;48.396;10.008;2023-07-31T04:24:17;96238.56;;;15.62;64.48
8253;BME280;61313;48.396;10.008;2023-07-31T04:26:52;96243.41;;;15.68;64.21
8253;BME280;61313;48.396;10.008;2023-07-31T04:29:17;96237.75;;;15.74;64.39
8253;BME280;61313;48.396;10.008;2023-07-31T04:31:43;96228.50;;;15.67;64.34
8253;BME280;61313;48.396;10.008;2023-07-31T04:34:09;96230.25;;;15.81;63.86
8253;BME280;61313;48.396;10.008;2023-07-31T04:36:35;96226.66;;;15.82;63.77
8253;BME280;61313;48.396;10.008;2023-07-31T04:39:00;96224.75;;;15.97;62.92
8253;BME280;61313;48.396;10.008;2023-07-31T04:41:26;96218.41;;;16.25;62.21
8253;BME280;61313;48.396;10.008;2023-07-31T04:43:51;96224.34;;;16.54;61.23
8253;BME280;61313;48.396;10.008;2023-07-31T04:46:17;96214.25;;;16.59;60.97
8253;BME280;61313;48.396;10.008;2023-07-31T04:48:42;96220.63;;;16.44;61.13
8253;BME280;61313;48.396;10.008;2023-07-31T04:51:08;96223.47;;;16.66;60.95
8253;BME280;61313;48.396;10.008;2023-07-31T04:53:34;96208.84;;;16.61;60.51
8253;BME280;61313;48.396;10.008;2023-07-31T04:56:00;96208.81;;;16.73;60.27
8253;BME280;61313;48.396;10.008;2023-07-31T04:58:25;96220.50;;;16.58;60.70
8253;BME280;61313;48.396;10.008;2023-07-31T05:00:51;96228.97;;;16.63;60.63
8253;BME280;61313;48.396;10.008;2023-07-31T05:03:16;96228.56;;;16.57;60.75
8253;BME280;61313;48.396;10.008;2023-07-31T05:05:41;96225.81;;;16.45;60.94
8253;BME280;61313;48.396;10.008;2023-07-31T05:08:07;96230.78;;;16.50;60.96
8253;BME280;61313;48.396;10.008;2023-07-31T05:10:32;96221.88;;;16.51;60.77
8253;BME280;61313;48.396;10.008;2023-07-31T05:12:57;96221.88;;;16.51;60.85
8253;BME280;61313;48.396;10.008;2023-07-31T05:15:23;96210.59;;;16.86;60.07
8253;BME280;61313;48.396;10.008;2023-07-31T05:17:48;96217.16;;;16.93;60.01
8253;BME280;61313;48.396;10.008;2023-07-31T05:20:14;96217.00;;;17.07;59.77
8253;BME280;61313;48.396;10.008;2023-07-31T05:22:40;96208.47;;;16.91;60.49
8253;BME280;61313;48.396;10.008;2023-07-31T05:25:05;96206.91;;;16.76;61.27
8253;BME280;61313;48.396;10.008;2023-07-31T05:27:31;96218.28;;;16.52;61.91
8253;BME280;61313;48.396;10.008;2023-07-31T05:29:57;96220.63;;;16.57;62.12
8253;BME280;61313;48.396;10.008;2023-07-31T05:32:22;96220.22;;;17.24;62.08
8253;BME280;61313;48.396;10.008;2023-07-31T05:34:51;96213.22;;;17.47;61.39
8253;BME280;61313;48.396;10.008;2023-07-31T05:37:17;96220.69;;;17.77;63.00
8253;BME280;61313;48.396;10.008;2023-07-31T05:39:42;96225.00;;;17.67;60.18
8253;BME280;61313;48.396;10.008;2023-07-31T05:42:08;96227.13;;;17.86;62.00
8253;BME280;61313;48.396;10.008;2023-07-31T05:44:33;96224.72;;;17.59;59.19
8253;BME280;61313;48.396;10.008;2023-07-31T05:47:00;96223.31;;;17.66;59.22
8253;BME280;61313;48.396;10.008;2023-07-31T05:49:25;96226.00;;;17.77;59.26
8253;BME280;61313;48.396;10.008;2023-07-31T05:51:51;96227.66;;;17.67;60.05
8253;BME280;61313;48.396;10.008;2023-07-31T05:54:16;96220.44;;;17.45;60.98
8253;BME280;61313;48.396;10.008;2023-07-31T05:56:42;96210.28;;;17.63;60.86
8253;BME280;61313;48.396;10.008;2023-07-31T05:59:08;96205.56;;;17.90;60.00
8253;BME280;61313;48.396;10.008;2023-07-31T06:01:34;96207.81;;;18.41;57.59
8253;BME280;61313;48.396;10.008;2023-07-31T06:03:59;96216.41;;;18.90;56.18
8253;BME280;61313;48.396;10.008;2023-07-31T06:06:25;96213.94;;;19.10;55.07
8253;BME280;61313;48.396;10.008;2023-07-31T06:08:50;96218.22;;;19.33;54.83
8253;BME280;61313;48.396;10.008;2023-07-31T06:11:16;96219.25;;;19.10;54.96
8253;BME280;61313;48.396;10.008;2023-07-31T06:13:41;96221.81;;;19.00;55.59
8253;BME280;61313;48.396;10.008;2023-07-31T06:16:06;96217.22;;;19.02;56.07
8253;BME280;61313;48.396;10.008;2023-07-31T06:18:32;96211.63;;;19.16;55.11
8253;BME280;61313;48.396;10.008;2023-07-31T06:20:58;96199.38;;;19.57;53.73
8253;BME280;61313;48.396;10.008;2023-07-31T06:23:23;96203.09;;;19.77;53.22
8253;BME280;61313;48.396;10.008;2023-07-31T06:25:48;96193.03;;;20.02;52.68
8253;BME280;61313;48.396;10.008;2023-07-31T06:28:14;96197.59;;;20.42;51.67
8253;BME280;61313;48.396;10.008;2023-07-31T06:30:39;96193.13;;;20.73;51.00
8253;BME280;61313;48.396;10.008;2023-07-31T06:33:05;96205.72;;;20.71;50.45
8253;BME280;61313;48.396;10.008;2023-07-31T06:35:30;96193.13;;;20.21;51.45
8253;BME280;61313;48.396;10.008;2023-07-31T06:37:55;96197.88;;;19.76;52.78
8253;BME280;61313;48.396;10.008;2023-07-31T06:40:24;96201.78;;;19.72;53.10
8253;BME280;61313;48.396;10.008;2023-07-31T06:42:49;96201.41;;;19.65;53.59
8253;BME280;61313;48.396;10.008;2023-07-31T06:45:14;96199.88;;;19.51;54.05
8253;BME280;61313;48.396;10.008;2023-07-31T06:47:40;96196.84;;;19.35;54.16
8253;BME280;61313;48.396;10.008;2023-07-31T06:50:05;96195.00;;;19.35;54.39
8253;BME280;61313;48.396;10.008;2023-07-31T06:52:31;96196.84;;;19.35;55.09
8253;BME280;61313;48.396;10.008;2023-07-31T06:55:04;96194.41;;;19.32;55.12
8253;BME280;61313;48.396;10.008;2023-07-31T06:57:29;96211.16;;;19.11;55.68
8253;BME280;61313;48.396;10.008;2023-07-31T06:59:55;96201.63;;;19.09;55.65
8253;BME280;61313;48.396;10.008;2023-07-31T07:02:20;96187.09;;;19.01;56.08
8253;BME280;61313;48.396;10.008;2023-07-31T07:04:46;96196.16;;;19.10;56.12
8253;BME280;61313;48.396;10.008;2023-07-31T07:07:11;96197.16;;;19.09;55.79
8253;BME280;61313;48.396;10.008;2023-07-31T07:09:36;96198.59;;;19.02;56.33
8253;BME280;61313;48.396;10.008;2023-07-31T07:12:02;96193.69;;;18.86;56.79
8253;BME280;61313;48.396;10.008;2023-07-31T07:14:27;96187.38;;;18.98;56.74
8253;BME280;61313;48.396;10.008;2023-07-31T07:16:53;96190.19;;;18.86;56.59
8253;BME280;61313;48.396;10.008;2023-07-31T07:19:18;96184.34;;;18.92;56.37
8253;BME280;61313;48.396;10.008;2023-07-31T07:21:43;96191.72;;;18.99;55.97
8253;BME280;61313;48.396;10.008;2023-07-31T07:24:09;96186.25;;;19.01;55.93
8253;BME280;61313;48.396;10.008;2023-07-31T07:26:34;96180.56;;;19.06;55.94
8253;BME280;61313;48.396;10.008;2023-07-31T07:29:00;96183.00;;;19.09;55.42
8253;BME280;61313;48.396;10.008;2023-07-31T07:31:27;96181.28;;;19.19;55.04
8253;BME280;61313;48.396;10.008;2023-07-31T07:33:53;96173.16;;;19.20;55.15
8253;BME280;61313;48.396;10.008;2023-07-31T07:36:18;96173.13;;;19.32;54.97
8253;BME280;61313;48.396;10.008;2023-07-31T07:38:44;96177.25;;;19.57;54.45
8253;BME280;61313;48.396;10.008;2023-07-31T07:41:09;96173.50;;;19.59;53.84
8253;BME280;61313;48.396;10.008;2023-07-31T07:43:35;96175.66;;;19.65;53.69
8253;BME280;61313;48.396;10.008;2023-07-31T07:46:00;96167.88;;;19.74;53.85
8253;BME280;61313;48.396;10.008;2023-07-31T07:48:25;96165.59;;;19.90;53.00
8253;BME280;61313;48.396;10.008;2023-07-31T07:50:51;96183.91;;;20.04;52.58
8253;BME280;61313;48.396;10.008;2023-07-31T07:53:16;96185.72;;;20.25;52.44
8253;BME280;61313;48.396;10.008;2023-07-31T07:55:41;96178.09;;;20.41;51.41
8253;BME280;61313;48.396;10.008;2023-07-31T07:58:08;96178.34;;;20.38;50.64
8253;BME280;61313;48.396;10.008;2023-07-31T08:00:33;96174.53;;;20.62;50.53
8253;BME280;61313;48.396;10.008;2023-07-31T08:02:58;96167.03;;;20.77;49.80
8253;BME280;61313;48.396;10.008;2023-07-31T08:05:24;96170.81;;;20.74;50.45
8253;BME280;61313;48.396;10.008;2023-07-31T08:07:50;96171.81;;;20.83;49.84
8253;BME280;61313;48.396;10.008;2023-07-31T08:10:15;96172.91;;;20.80;50.03
8253;BME280;61313;48.396;10.008;2023-07-31T08:12:40;96171.97;;;20.81;50.00
8253;BME280;61313;48.396;10.008;2023-07-31T08:15:06;96160.16;;;20.74;49.99
8253;BME280;61313;48.396;10.008;2023-07-31T08:17:32;96155.91;;;20.71;50.07
8253;BME280;61313;48.396;10.008;2023-07-31T08:19:57;96161.22;;;20.62;49.94
8253;BME280;61313;48.396;10.008;2023-07-31T08:22:23;96165.03;;;20.69;49.42
8253;BME280;61313;48.396;10.008;2023-07-31T08:24:49;96168.25;;;20.63;49.67
8253;BME280;61313;48.396;10.008;2023-07-31T08:27:14;96163.50;;;20.76;49.50
8253;BME280;61313;48.396;10.008;2023-07-31T08:29:39;96164.41;;;20.96;49.28
8253;BME280;61313;48.396;10.008;2023-07-31T08:32:05;96152.50;;;21.00;49.31
8253;BME280;61313;48.396;10.008;2023-07-31T08:34:31;96151.19;;;20.94;49.25
8253;BME280;61313;48.396;10.008;2023-07-31T08:36:56;96152.50;;;21.10;49.04
8253;BME280;61313;48.396;10.008;2023-07-31T08:39:21;96154.25;;;21.50;48.08
8253;BME280;61313;48.396;10.008;2023-07-31T08:41:47;96149.50;;;22.10;46.84
8253;BME280;61313;48.396;10.008;2023-07-31T08:44:13;96145.66;;;22.70;45.37
8253;BME280;61313;48.396;10.008;2023-07-31T08:46:40;96150.94;;;22.79;44.80
8253;BME280;61313;48.396;10.008;2023-07-31T08:49:07;96143.41;;;22.93;44.59
8253;BME280;61313;48.396;10.008;2023-07-31T08:51:34;96138.06;;;22.93;44.71
8253;BME280;61313;48.396;10.008;2023-07-31T08:54:01;96135.00;;;23.15;43.96
8253;BME280;61313;48.396;10.008;2023-07-31T08:56:27;96137.03;;;23.57;42.59
8253;BME280;61313;48.396;10.008;2023-07-31T08:58:53;96125.13;;;23.52;42.53
8253;BME280;61313;48.396;10.008;2023-07-31T09:01:19;96122.41;;;23.87;41.62
8253;BME280;61313;48.396;10.008;2023-07-31T09:03:46;96118.47;;;24.00;41.55
8253;BME280;61313;48.396;10.008;2023-07-31T09:06:13;96114.22;;;23.89;41.44
8253;BME280;61313;48.396;10.008;2023-07-31T09:08:41;96115.84;;;24.08;41.33
8253;BME280;61313;48.396;10.008;2023-07-31T09:11:07;96111.41;;;24.17;40.64
8253;BME280;61313;48.396;10.008;2023-07-31T09:13:33;96108.97;;;23.79;41.63
8253;BME280;61313;48.396;10.008;2023-07-31T09:15:58;96094.44;;;24.16;40.38
8253;BME280;61313;48.396;10.008;2023-07-31T09:18:24;96100.84;;;24.23;40.54
8253;BME280;61313;48.396;10.008;2023-07-31T09:21:03;96097.09;;;23.82;41.21
8253;BME280;61313;48.396;10.008;2023-07-31T09:23:43;96090.59;;;23.84;41.78
8253;BME280;61313;48.396;10.008;2023-07-31T09:26:10;96100.22;;;23.59;42.34
8253;BME280;61313;48.396;10.008;2023-07-31T09:28:35;96097.97;;;23.46;42.23
8253;BME280;61313;48.396;10.008;2023-07-31T09:31:01;96096.66;;;23.33;42.46
8253;BME280;61313;48.396;10.008;2023-07-31T09:33:26;96089.25;;;23.44;42.40
8253;BME280;61313;48.396;10.008;2023-07-31T09:35:52;96092.94;;;23.43;42.33
8253;BME280;61313;48.396;10.008;2023-07-31T09:38:17;96097.81;;;23.30;42.70
8253;BME280;61313;48.396;10.008;2023-07-31T09:40:47;96090.97;;;22.82;43.22
8253;BME280;61313;48.396;10.008;2023-07-31T09:43:17;96086.09;;;22.68;43.77
8253;BME280;61313;48.396;10.008;2023-07-31T09:45:44;96087.81;;;22.69;43.87
8253;BME280;61313;48.396;10.008;2023-07-31T09:48:14;96082.19;;;22.90;43.67
8253;BME280;61313;48.396;10.008;2023-07-31T09:50:42;96072.72;;;23.31;42.63
8253;BME280;61313;48.396;10.008;2023-07-31T09:53:08;96078.22;;;23.48;41.94
8253;BME280;61313;48.396;10.008;2023-07-31T09:55:34;96081.34;;;23.61;41.15
8253;BME280;61313;48.396;10.008;2023-07-31T09:58:05;96087.34;;;23.37;41.94
8253;BME280;61313;48.396;10.008;2023-07-31T10:00:31;96083.22;;;23.24;41.69
8253;BME280;61313;48.396;10.008;2023-07-31T10:03:04;96072.16;;;23.45;41.30
8253;BME280;61313;48.396;10.008;2023-07-31T10:05:50;96079.47;;;22.99;41.94
8253;BME280;61313;48.396;10.008;2023-07-31T10:08:18;96064.94;;;22.56;42.57
8253;BME280;61313;48.396;10.008;2023-07-31T10:10:45;96052.91;;;22.60;42.88
8253;BME280;61313;48.396;10.008;2023-07-31T10:13:12;96056.47;;;22.79;42.63
8253;BME280;61313;48.396;10.008;2023-07-31T10:15:38;96059.59;;;22.74;42.12
8253;BME280;61313;48.396;10.008;2023-07-31T10:18:06;96055.56;;;22.88;42.54
8253;BME280;61313;48.396;10.008;2023-07-31T10:20:31;96045.88;;;22.87;42.01
8253;BME280;61313;48.396;10.008;2023-07-31T10:22:57;96048.91;;;22.92;42.11
8253;BME280;61313;48.396;10.008;2023-07-31T10:25:23;96037.63;;;22.98;42.05
8253;BME280;61313;48.396;10.008;2023-07-31T10:27:50;96014.91;;;23.02;42.05
8253;BME280;61313;48.396;10.008;2023-07-31T10:30:19;96022.25;;;23.00;42.08
8253;BME280;61313;48.396;10.008;2023-07-31T10:32:46;96015.53;;;22.96;41.78
8253;BME280;61313;48.396;10.008;2023-07-31T10:35:14;96018.09;;;22.88;42.39
8253;BME280;61313;48.396;10.008;2023-07-31T10:37:42;96015.66;;;22.77;42.45
8253;BME280;61313;48.396;10.008;2023-07-31T10:40:26;96006.16;;;22.65;42.66
8253;BME280;61313;48.396;10.008;2023-07-31T10:42:54;95996.47;;;22.81;42.55
8253;BME280;61313;48.396;10.008;2023-07-31T10:45:36;95988.88;;;23.31;41.86
8253;BME280;61313;48.396;10.008;2023-07-31T10:48:04;95988.97;;;23.65;41.01
8253;BME280;61313;48.396;10.008;2023-07-31T10:50:31;95988.75;;;23.84;40.91
8253;BME280;61313;48.396;10.008;2023-07-31T10:53:00;95988.41;;;23.87;39.45
8253;BME280;61313;48.396;10.008;2023-07-31T10:55:42;95984.06;;;23.86;39.45
8253;BME280;61313;48.396;10.008;2023-07-31T10:58:11;95982.25;;;23.69;39.90
8253;BME280;61313;48.396;10.008;2023-07-31T11:00:39;95988.06;;;23.82;39.15
8253;BME280;61313;48.396;10.008;2023-07-31T11:03:09;95982.47;;;24.02;38.85
8253;BME280;61313;48.396;10.008;2023-07-31T11:10:42;95975.50;;;24.25;38.43
8253;BME280;61313;48.396;10.008;2023-07-31T11:13:08;95970.81;;;24.19;38.51
8253;BME280;61313;48.396;10.008;2023-07-31T11:15:33;95966.63;;;24.17;38.77
8253;BME280;61313;48.396;10.008;2023-07-31T11:18:01;95968.41;;;24.08;38.23
8253;BME280;61313;48.396;10.008;2023-07-31T11:20:32;95958.94;;;24.30;38.10
8253;BME280;61313;48.396;10.008;2023-07-31T11:23:02;95956.34;;;24.04;38.06
8253;BME280;61313;48.396;10.008;2023-07-31T11:25:29;95964.03;;;23.99;38.60
8253;BME280;61313;48.396;10.008;2023-07-31T11:27:55;95959.84;;;23.96;38.95
8253;BME280;61313;48.396;10.008;2023-07-31T11:30:21;95957.44;;;23.85;38.75
8253;BME280;61313;48.396;10.008;2023-07-31T11:32:47;95961.81;;;23.60;39.24
8253;BME280;61313;48.396;10.008;2023-07-31T11:35:13;95954.13;;;23.65;39.42
8253;BME280;61313;48.396;10.008;2023-07-31T11:37:42;95952.97;;;23.67;39.57
8253;BME280;61313;48.396;10.008;2023-07-31T11:40:09;95961.81;;;23.60;39.53
8253;BME280;61313;48.396;10.008;2023-07-31T11:42:35;95972.34;;;23.35;40.00
8253;BME280;61313;48.396;10.008;2023-07-31T11:45:07;95972.78;;;23.49;39.96
8253;BME280;61313;48.396;10.008;2023-07-31T11:47:34;95966.59;;;23.48;40.05
8253;BME280;61313;48.396;10.008;2023-07-31T11:50:05;95973.16;;;23.54;40.29
8253;BME280;61313;48.396;10.008;2023-07-31T11:52:36;95971.16;;;23.56;40.16
8253;BME280;61313;48.396;10.008;2023-07-31T11:55:04;95962.56;;;23.52;40.01
8253;BME280;61313;48.396;10.008;2023-07-31T11:57:30;95960.16;;;23.41;40.16
8253;BME280;61313;48.396;10.008;2023-07-31T11:59:56;95954.66;;;23.42;40.14
8253;BME280;61313;48.396;10.008;2023-07-31T12:02:23;95954.28;;;23.37;40.47
8253;BME280;61313;48.396;10.008;2023-07-31T12:04:48;95945.72;;;23.34;39.96
8253;BME280;61313;48.396;10.008;2023-07-31T12:07:14;95941.69;;;23.30;40.25
8253;BME280;61313;48.396;10.008;2023-07-31T12:09:51;95945.56;;;23.35;40.74
8253;BME280;61313;48.396;10.008;2023-07-31T12:12:21;95932.97;;;23.28;41.19
8253;BME280;61313;48.396;10.008;2023-07-31T12:14:47;95934.75;;;23.19;41.81
8253;BME280;61313;48.396;10.008;2023-07-31T12:17:14;95947.34;;;23.27;41.53
8253;BME280;61313;48.396;10.008;2023-07-31T12:19:39;95935.06;;;23.16;41.46
8253;BME280;61313;48.396;10.008;2023-07-31T12:22:15;95938.06;;;23.13;41.51
8253;BME280;61313;48.396;10.008;2023-07-31T12:24:43;95931.84;;;23.12;41.76
8253;BME280;61313;48.396;10.008;2023-07-31T12:27:12;95922.25;;;23.01;42.19
8253;BME280;61313;48.396;10.008;2023-07-31T12:29:41;95912.28;;;23.12;42.07
8253;BME280;61313;48.396;10.008;2023-07-31T12:32:24;95910.66;;;23.19;41.84
8253;BME280;61313;48.396;10.008;2023-07-31T12:34:51;95904.94;;;23.14;41.85
8253;BME280;61313;48.396;10.008;2023-07-31T12:37:17;95916.47;;;23.14;41.75
8253;BME280;61313;48.396;10.008;2023-07-31T12:39:42;95901.25;;;23.15;42.37
8253;BME280;61313;48.396;10.008;2023-07-31T12:42:08;95900.97;;;23.18;41.93
8253;BME280;61313;48.396;10.008;2023-07-31T12:44:33;95896.88;;;23.06;42.85
8253;BME280;61313;48.396;10.008;2023-07-31T12:46:58;95902.69;;;23.01;42.56
8253;BME280;61313;48.396;10.008;2023-07-31T12:49:24;95905.56;;;23.08;44.74
8253;BME280;61313;48.396;10.008;2023-07-31T12:51:50;95902.41;;;23.12;42.77
8253;BME280;61313;48.396;10.008;2023-07-31T12:54:15;95884.94;;;23.00;43.11
8253;BME280;61313;48.396;10.008;2023-07-31T12:56:40;95877.75;;;23.00;42.88
8253;BME280;61313;48.396;10.008;2023-07-31T12:59:06;95885.84;;;22.91;42.95
8253;BME280;61313;48.396;10.008;2023-07-31T13:01:31;95868.97;;;22.90;43.69
8253;BME280;61313;48.396;10.008;2023-07-31T13:03:57;95878.75;;;22.81;43.45
8253;BME280;61313;48.396;10.008;2023-07-31T13:06:24;95871.41;;;22.83;43.90
8253;BME280;61313;48.396;10.008;2023-07-31T13:08:49;95861.88;;;22.81;44.00